Time;durP1;ratioP1;P1;durP2;ratioP2;P2;SDS_P1;SDS_P2;PMS_P1;PMS_P2;Temp;Humidity;BMP_temperature;BMP_pressure;BME280_temperature;BME280_humidity;BME280_pressure;Samples;Min_cycle;Max_cycle;Signal;HPM_P1;HPM_P2
2022/07/05 00:01:42;;;;;;;3.47;1.92;;;16.50;84.50;;;;;;5010502;28;20034;-75
2022/07/05 00:04:07;;;;;;;3.25;1.75;;;16.50;84.60;;;;;;5010111;28;20053;-77
2022/07/05 00:06:33;;;;;;;5.15;2.17;;;16.50;84.40;;;;;;5010356;28;20099;-78
2022/07/05 00:08:58;;;;;;;3.45;1.95;;;16.50;84.40;;;;;;5010303;28;20485;-77
2022/07/05 00:11:24;;;;;;;3.95;1.83;;;16.50;84.20;;;;;;5025121;28;20436;-76
2022/07/05 00:13:50;;;;;;;3.05;1.88;;;16.50;84.00;;;;;;5009819;28;20389;-76
2022/07/05 00:16:15;;;;;;;5.78;2.05;;;16.60;83.70;;;;;;5009985;28;20091;-74
2022/07/05 00:18:42;;;;;;;2.63;1.85;;;16.50;83.90;;;;;;5010250;28;20177;-76
2022/07/05 00:21:07;;;;;;;3.05;2.10;;;16.60;83.60;;;;;;5010051;28;20072;-78
2022/07/05 00:23:33;;;;;;;4.28;2.13;;;16.60;83.30;;;;;;5009882;28;20046;-77
2022/07/05 00:25:59;;;;;;;2.13;1.92;;;16.50;83.60;;;;;;5010275;28;20478;-77
2022/07/05 00:28:24;;;;;;;4.00;2.08;;;16.40;83.70;;;;;;5010196;28;20044;-78
2022/07/05 00:30:50;;;;;;;5.63;2.58;;;16.40;83.70;;;;;;5009701;28;20049;-77
2022/07/05 00:33:15;;;;;;;5.63;1.55;;;16.40;83.70;;;;;;5010040;28;20021;-76
2022/07/05 00:35:41;;;;;;;2.47;1.85;;;16.40;83.40;;;;;;5009918;28;20029;-75
2022/07/05 00:38:07;;;;;;;3.25;1.83;;;16.50;83.30;;;;;;5009418;28;20079;-76
2022/07/05 00:40:32;;;;;;;4.15;2.13;;;16.50;83.30;;;;;;5025004;28;20100;-76
2022/07/05 00:42:58;;;;;;;2.10;1.65;;;16.40;83.30;;;;;;5009682;28;20045;-75
2022/07/05 00:45:23;;;;;;;3.15;1.67;;;16.40;83.20;;;;;;5009727;28;20145;-76
2022/07/05 00:47:49;;;;;;;4.45;2.10;;;16.30;83.50;;;;;;5009800;28;20022;-77
2022/07/05 00:50:15;;;;;;;4.93;1.80;;;16.30;83.50;;;;;;5009487;28;20022;-77
2022/07/05 00:52:40;;;;;;;2.92;1.83;;;16.30;83.40;;;;;;5024471;28;20117;-77
2022/07/05 00:55:07;;;;;;;5.72;1.80;;;16.20;83.60;;;;;;5009511;28;20418;-77
2022/07/05 00:57:34;;;;;;;5.18;2.28;;;16.10;84.10;;;;;;5009693;28;20382;-77
2022/07/05 00:59:59;;;;;;;4.25;2.10;;;16.00;84.20;;;;;;5008592;28;20034;-77
2022/07/05 01:02:25;;;;;;;3.63;2.15;;;16.00;84.50;;;;;;5009540;28;20030;-77
2022/07/05 01:04:51;;;;;;;4.40;2.17;;;15.90;84.80;;;;;;5009703;28;20026;-77
2022/07/05 01:07:20;;;;;;;10.25;2.42;;;15.90;84.70;;;;;;5010293;28;20076;-77
2022/07/05 01:09:46;;;;;;;3.22;1.90;;;15.90;84.70;;;;;;5012545;28;20032;-77
2022/07/05 01:12:11;;;;;;;3.72;2.42;;;15.90;84.50;;;;;;5013024;28;20064;-77
2022/07/05 01:14:38;;;;;;;3.33;2.35;;;15.90;84.40;;;;;;5013157;28;20093;-77
2022/07/05 01:17:04;;;;;;;2.05;1.83;;;15.80;84.40;;;;;;5013213;28;20029;-77
2022/07/05 01:19:29;;;;;;;6.93;2.47;;;15.90;84.50;;;;;;5012805;28;20067;-78
2022/07/05 01:21:57;;;;;;;4.68;2.33;;;15.90;84.40;;;;;;5028070;28;20033;-78
2022/07/05 01:24:23;;;;;;;4.15;2.20;;;15.90;84.10;;;;;;5012900;28;20104;-78
2022/07/05 01:26:50;;;;;;;6.40;2.30;;;16.00;83.90;;;;;;5012909;28;20435;-78
2022/07/05 01:29:16;;;;;;;2.22;2.03;;;15.90;83.90;;;;;;5012570;28;20026;-78
2022/07/05 01:31:42;;;;;;;2.25;1.83;;;15.90;83.90;;;;;;5012993;28;20030;-78
2022/07/05 01:34:08;;;;;;;5.30;2.15;;;15.90;84.00;;;;;;5012805;28;20029;-78
2022/07/05 01:36:34;;;;;;;2.83;2.30;;;15.90;84.10;;;;;;5012636;28;20026;-78
2022/07/05 01:39:05;;;;;;;3.00;2.00;;;15.80;84.00;;;;;;5011892;28;20044;-78
2022/07/05 01:41:31;;;;;;;3.58;2.38;;;15.80;84.20;;;;;;5012168;28;20133;-77
2022/07/05 01:43:57;;;;;;;2.72;2.15;;;15.80;84.10;;;;;;5012599;28;20083;-77
2022/07/05 01:46:23;;;;;;;2.03;1.63;;;15.80;83.90;;;;;;5012595;28;20034;-76
2022/07/05 01:48:53;;;;;;;5.57;1.95;;;15.80;84.00;;;;;;5012540;28;20037;-77
2022/07/05 01:51:22;;;;;;;3.03;2.13;;;15.80;84.00;;;;;;5012127;28;20038;-77
2022/07/05 01:53:51;;;;;;;6.97;2.22;;;15.70;83.80;;;;;;5012547;28;20459;-77
2022/07/05 01:56:17;;;;;;;3.80;2.30;;;15.70;83.70;;;;;;5012177;28;20034;-77
2022/07/05 01:58:44;;;;;;;6.55;1.88;;;15.70;84.00;;;;;;5012062;28;20033;-78
2022/07/05 02:01:09;;;;;;;2.90;1.90;;;15.70;83.70;;;;;;5011724;28;20030;-77
2022/07/05 02:03:36;;;;;;;5.10;2.13;;;15.60;83.70;;;;;;5012099;28;20083;-77
2022/07/05 02:06:01;;;;;;;3.55;1.90;;;15.50;84.00;;;;;;5012112;28;20030;-78
2022/07/05 02:08:30;;;;;;;3.60;1.65;;;15.60;84.20;;;;;;5011952;28;20022;-78
2022/07/05 02:10:56;;;;;;;6.10;2.33;;;15.50;84.40;;;;;;5011899;28;20026;-77
2022/07/05 02:13:22;;;;;;;2.47;2.17;;;15.50;84.50;;;;;;5011556;28;20109;-78
2022/07/05 02:15:48;;;;;;;3.40;1.80;;;15.40;84.50;;;;;;5011883;28;20160;-78
2022/07/05 02:18:13;;;;;;;7.95;2.20;;;15.50;84.50;;;;;;5011936;28;20524;-78
2022/07/05 02:20:40;;;;;;;4.50;1.90;;;15.40;84.40;;;;;;5026521;28;20026;-79
2022/07/05 02:23:06;;;;;;;5.85;2.00;;;15.50;84.40;;;;;;5011991;28;20026;-78
2022/07/05 02:25:32;;;;;;;1.77;1.67;;;15.30;84.40;;;;;;5011703;28;20026;-77
2022/07/05 02:27:58;;;;;;;2.05;1.77;;;15.30;84.40;;;;;;5011859;28;20026;-77
2022/07/05 02:30:24;;;;;;;5.90;2.05;;;15.30;84.50;;;;;;5010223;28;20057;-77
2022/07/05 02:32:49;;;;;;;4.53;2.03;;;15.20;84.60;;;;;;5011860;28;20385;-77
2022/07/05 02:35:15;;;;;;;4.40;2.20;;;15.20;84.70;;;;;;5011975;28;20026;-77
2022/07/05 02:37:41;;;;;;;3.25;2.30;;;15.10;84.90;;;;;;5026856;28;20033;-77
2022/07/05 02:40:10;;;;;;;2.85;2.08;;;15.20;84.80;;;;;;5011640;28;20026;-78
2022/07/05 02:42:36;;;;;;;2.22;2.03;;;15.10;84.80;;;;;;5011588;28;20021;-77
2022/07/05 02:45:02;;;;;;;3.88;1.90;;;15.10;84.80;;;;;;5011736;28;20030;-77
2022/07/05 02:47:30;;;;;;;4.13;2.00;;;15.10;84.70;;;;;;5011773;28;20075;-77
2022/07/05 02:49:57;;;;;;;7.63;2.10;;;15.10;84.60;;;;;;5011554;28;20060;-77
2022/07/05 02:52:23;;;;;;;4.18;1.77;;;15.10;84.40;;;;;;5011520;28;20343;-77
2022/07/05 02:54:49;;;;;;;2.30;2.10;;;15.10;84.60;;;;;;5011263;28;20022;-78
2022/07/05 02:57:14;;;;;;;2.90;1.90;;;15.00;84.60;;;;;;5011497;28;20058;-78
2022/07/05 02:59:40;;;;;;;5.40;2.17;;;15.10;84.70;;;;;;5011201;28;20018;-77
2022/07/05 03:02:05;;;;;;;5.93;2.00;;;15.00;84.60;;;;;;5011020;28;20033;-77
2022/07/05 03:04:31;;;;;;;2.72;1.80;;;15.00;84.40;;;;;;5010545;28;20064;-77
2022/07/05 03:06:56;;;;;;;1.63;1.50;;;15.00;84.40;;;;;;5026546;28;20063;-77
2022/07/05 03:09:22;;;;;;;5.38;1.90;;;14.90;84.60;;;;;;5011157;28;20086;-77
2022/07/05 03:11:47;;;;;;;3.78;1.80;;;15.00;84.70;;;;;;5011150;28;20109;-76
2022/07/05 03:14:13;;;;;;;3.20;1.77;;;15.00;84.50;;;;;;5011264;28;20159;-77
2022/07/05 03:16:38;;;;;;;3.58;1.95;;;15.00;84.40;;;;;;5011254;28;20057;-76
2022/07/05 03:19:04;;;;;;;4.15;1.90;;;15.00;84.50;;;;;;5011042;28;20526;-76
2022/07/05 03:21:30;;;;;;;3.63;2.22;;;14.90;84.50;;;;;;5011114;28;20022;-76
2022/07/05 03:23:55;;;;;;;4.50;2.20;;;15.00;84.40;;;;;;5026294;28;20023;-75
2022/07/05 03:26:21;;;;;;;6.07;2.13;;;15.00;84.30;;;;;;5010846;28;20029;-75
2022/07/05 03:28:46;;;;;;;4.50;2.28;;;14.90;84.70;;;;;;5010910;28;20034;-76
2022/07/05 03:31:12;;;;;;;2.15;1.65;;;15.00;84.40;;;;;;5009663;28;20042;-76
2022/07/05 03:33:37;;;;;;;2.53;2.03;;;14.90;84.40;;;;;;5010969;28;20137;-76
2022/07/05 03:36:03;;;;;;;4.38;2.20;;;15.00;84.30;;;;;;5010664;28;20018;-75
2022/07/05 03:38:28;;;;;;;5.05;1.95;;;14.90;84.50;;;;;;5010865;28;20033;-76
2022/07/05 03:40:54;;;;;;;2.72;2.17;;;15.00;84.50;;;;;;5024867;28;20018;-76
2022/07/05 03:43:19;;;;;;;4.30;2.50;;;15.00;84.40;;;;;;5010181;28;20041;-75
2022/07/05 03:45:45;;;;;;;5.50;2.15;;;15.00;84.00;;;;;;5010205;28;20072;-78
2022/07/05 03:48:11;;;;;;;3.60;2.40;;;15.10;83.70;;;;;;5010576;28;20075;-76
2022/07/05 03:50:36;;;;;;;3.50;2.28;;;15.20;83.40;;;;;;5010401;28;20570;-77
2022/07/05 03:53:02;;;;;;;2.72;1.67;;;15.20;83.00;;;;;;5010511;28;20109;-77
2022/07/05 03:55:27;;;;;;;3.10;1.55;;;15.20;82.70;;;;;;5010356;28;20402;-76
2022/07/05 03:57:53;;;;;;;1.75;1.33;;;15.20;82.50;;;;;;5010625;28;20029;-76
2022/07/05 04:00:18;;;;;;;5.25;1.90;;;15.10;82.80;;;;;;5010499;28;20041;-77
2022/07/05 04:02:44;;;;;;;3.40;1.88;;;15.20;82.70;;;;;;5009811;28;20025;-75
2022/07/05 04:05:10;;;;;;;6.28;1.85;;;15.20;82.60;;;;;;5010137;28;20029;-75
2022/07/05 04:07:50;;;;;;;4.75;1.92;;;15.10;82.60;;;;;;5009670;28;20159;-76
2022/07/05 04:10:16;;;;;;;3.05;1.60;;;15.10;82.60;;;;;;5010375;28;20022;-75
2022/07/05 04:12:42;;;;;;;4.40;1.90;;;15.20;82.10;;;;;;5010416;28;20037;-76
2022/07/05 04:15:08;;;;;;;3.75;1.98;;;15.30;82.00;;;;;;5025323;28;20174;-76
2022/07/05 04:17:33;;;;;;;2.65;1.80;;;15.30;82.80;;;;;;5009914;28;20034;-74
2022/07/05 04:19:59;;;;;;;3.42;1.90;;;15.40;81.70;;;;;;5012867;28;20485;-75
2022/07/05 04:22:25;;;;;;;3.08;1.77;;;15.40;81.50;;;;;;5010692;28;20480;-76
2022/07/05 04:27:35;;;;;;;3.17;1.80;;;15.70;81.00;;;;;;5010190;28;20029;-76
2022/07/05 04:30:00;;;;;;;5.35;1.98;;;15.80;80.70;;;;;;5009961;28;20046;-74
2022/07/05 04:32:26;;;;;;;5.68;1.90;;;15.80;80.30;;;;;;5024812;28;20091;-75
2022/07/05 04:34:51;;;;;;;2.95;1.88;;;15.90;80.20;;;;;;5010050;28;20491;-75
2022/07/05 04:37:17;;;;;;;2.90;2.10;;;16.00;79.90;;;;;;5010055;28;20105;-77
2022/07/05 04:39:42;;;;;;;5.05;1.65;;;16.00;79.70;;;;;;5009996;28;20026;-77
2022/07/05 04:42:08;;;;;;;7.82;2.40;;;16.10;79.60;;;;;;5009454;28;20026;-77
2022/07/05 04:44:34;;;;;;;3.15;1.98;;;16.10;79.50;;;;;;5009774;28;20152;-74
2022/07/05 04:46:59;;;;;;;5.55;1.77;;;16.20;79.40;;;;;;5009752;28;20092;-75
2022/07/05 04:49:25;;;;;;;4.32;1.92;;;16.20;78.80;;;;;;5024490;28;20381;-76
2022/07/05 04:51:50;;;;;;;2.80;1.63;;;16.20;78.70;;;;;;5009790;28;20476;-76
2022/07/05 04:54:16;;;;;;;2.78;1.90;;;16.20;78.70;;;;;;5009328;28;20026;-78
2022/07/05 04:56:41;;;;;;;2.83;1.80;;;16.30;78.80;;;;;;5024975;28;20065;-75
2022/07/05 04:59:07;;;;;;;3.90;1.77;;;16.30;78.20;;;;;;5009347;28;20022;-77
2022/07/05 05:01:32;;;;;;;3.97;1.77;;;16.40;77.80;;;;;;5009661;28;20030;-78
2022/07/05 05:03:58;;;;;;;3.65;1.73;;;16.40;77.40;;;;;;5009840;28;20350;-76
2022/07/05 05:06:23;;;;;;;3.03;1.70;;;16.40;77.40;;;;;;5024852;28;20029;-75
2022/07/05 05:08:49;;;;;;;4.32;1.80;;;16.50;77.10;;;;;;5009915;28;20466;-76
2022/07/05 05:11:14;;;;;;;2.40;1.80;;;16.50;77.40;;;;;;5008928;28;20034;-75
2022/07/05 05:13:45;;;;;;;13.07;2.13;;;16.60;77.60;;;;;;5009456;28;20026;-75
2022/07/05 05:16:11;;;;;;;3.42;2.20;;;16.60;77.60;;;;;;5009397;28;20481;-75
2022/07/05 05:18:36;;;;;;;4.13;1.83;;;16.80;77.50;;;;;;5009315;28;20014;-74
2022/07/05 05:21:02;;;;;;;3.70;1.98;;;16.80;77.30;;;;;;5009411;28;20057;-75
2022/07/05 05:23:27;;;;;;;3.85;1.83;;;16.90;77.30;;;;;;5009273;28;20052;-75
2022/07/05 05:25:53;;;;;;;3.60;2.03;;;16.80;77.20;;;;;;5009489;28;20034;-76
2022/07/05 05:28:19;;;;;;;6.20;2.25;;;16.90;77.00;;;;;;5008900;28;20492;-76
2022/07/05 05:30:45;;;;;;;3.15;2.00;;;17.00;76.30;;;;;;5008803;28;20060;-78
2022/07/05 05:33:10;;;;;;;3.88;1.70;;;17.10;75.50;;;;;;5009007;28;20026;-75
2022/07/05 05:35:36;;;;;;;4.70;1.90;;;17.20;74.10;;;;;;5009148;28;20022;-75
2022/07/05 05:38:01;;;;;;;2.00;1.60;;;17.20;73.50;;;;;;5009053;28;20030;-75
2022/07/05 05:40:27;;;;;;;5.05;1.20;;;17.40;73.10;;;;;;5009274;28;20050;-75
2022/07/05 05:42:54;;;;;;;3.85;1.40;;;17.50;72.20;;;;;;5009240;28;20105;-75
2022/07/05 05:45:20;;;;;;;3.50;1.27;;;17.70;71.10;;;;;;5009163;28;20026;-75
2022/07/05 05:47:55;;;;;;;3.45;1.20;;;17.80;70.30;;;;;;5023955;28;20026;-76
2022/07/05 05:50:23;;;;;;;4.28;1.40;;;17.90;69.80;;;;;;5008474;28;20033;-75
2022/07/05 05:52:49;;;;;;;3.13;1.38;;;18.00;69.90;;;;;;5008718;28;20369;-75
2022/07/05 05:55:15;;;;;;;1.80;1.13;;;18.10;69.50;;;;;;5010780;28;20394;-75
2022/07/05 05:57:41;;;;;;;3.72;1.08;;;18.30;68.80;;;;;;5012338;28;20067;-76
2022/07/05 06:00:07;;;;;;;3.30;1.13;;;18.50;68.90;;;;;;5012419;28;20477;-75
2022/07/05 06:02:33;;;;;;;1.90;1.20;;;18.60;68.50;;;;;;5012015;28;20018;-76
2022/07/05 06:04:58;;;;;;;3.72;1.05;;;18.70;67.70;;;;;;5012428;28;20036;-75
2022/07/05 06:07:24;;;;;;;2.42;1.15;;;18.90;66.50;;;;;;5012124;28;20030;-76
2022/07/05 06:09:50;;;;;;;2.17;0.90;;;19.00;65.90;;;;;;5011881;28;20025;-76
2022/07/05 06:12:15;;;;;;;3.42;1.08;;;19.20;65.40;;;;;;5011853;28;20058;-77
2022/07/05 06:14:41;;;;;;;5.35;1.27;;;19.30;64.90;;;;;;5012111;28;20030;-75
2022/07/05 06:17:06;;;;;;;1.75;0.90;;;19.40;64.20;;;;;;5011077;28;20084;-76
2022/07/05 06:19:32;;;;;;;2.03;1.00;;;19.50;63.70;;;;;;5011944;28;20026;-76
2022/07/05 06:21:58;;;;;;;0.65;0.60;;;19.60;63.80;;;;;;5013018;28;20022;-75
2022/07/05 06:24:24;;;;;;;2.15;0.85;;;19.70;63.80;;;;;;5012088;28;20029;-77
2022/07/05 06:26:49;;;;;;;1.38;0.70;;;19.90;63.50;;;;;;5015743;28;20040;-76
2022/07/05 06:29:15;;;;;;;2.80;1.27;;;20.10;63.20;;;;;;5013943;28;20398;-77
2022/07/05 06:31:41;;;;;;;2.10;1.05;;;20.20;62.30;;;;;;5011707;28;20041;-77
2022/07/05 06:34:06;;;;;;;2.78;1.30;;;20.20;60.70;;;;;;5011813;28;20018;-74
2022/07/05 06:36:32;;;;;;;2.33;1.20;;;20.30;60.60;;;;;;5012864;28;20036;-78
2022/07/05 06:38:57;;;;;;;3.75;1.10;;;20.50;59.10;;;;;;5013019;28;20022;-74
2022/07/05 06:41:23;;;;;;;4.07;1.40;;;20.50;58.30;;;;;;5028638;28;20109;-76
2022/07/05 06:43:49;;;;;;;2.08;1.17;;;20.60;58.00;;;;;;5013028;28;20026;-77
2022/07/05 06:46:14;;;;;;;4.50;1.30;;;20.70;57.90;;;;;;5027235;28;20117;-75
2022/07/05 06:48:40;;;;;;;4.07;1.08;;;20.80;57.20;;;;;;5012002;28;20022;-76
2022/07/05 06:51:06;;;;;;;4.03;1.17;;;20.90;56.20;;;;;;5010919;28;20044;-75
2022/07/05 06:53:31;;;;;;;3.00;1.10;;;20.90;56.10;;;;;;5011565;28;20014;-76
2022/07/05 06:55:57;;;;;;;2.25;1.00;;;21.10;55.80;;;;;;5012645;28;20060;-76
2022/07/05 06:58:23;;;;;;;1.88;1.00;;;21.30;55.30;;;;;;5013546;28;20461;-76
2022/07/05 07:00:49;;;;;;;5.20;1.38;;;21.30;54.00;;;;;;5012911;28;20022;-77
2022/07/05 07:03:14;;;;;;;3.30;1.42;;;21.50;53.10;;;;;;5027656;28;20034;-76
2022/07/05 07:05:40;;;;;;;2.92;1.30;;;21.40;51.80;;;;;;5012436;28;20050;-77
2022/07/05 07:10:50;;;;;;;2.80;1.20;;;21.50;51.80;;;;;;5011075;28;20065;-76
2022/07/05 07:13:15;;;;;;;2.38;1.30;;;21.60;51.20;;;;;;5010970;28;20406;-76
2022/07/05 07:15:41;;;;;;;3.97;1.00;;;21.70;50.20;;;;;;5011057;28;20025;-75
2022/07/05 07:18:07;;;;;;;3.50;1.35;;;21.80;48.80;;;;;;5010092;28;20056;-76
2022/07/05 07:20:32;;;;;;;3.42;1.00;;;21.70;45.50;;;;;;5010608;28;20037;-76
2022/07/05 07:22:58;;;;;;;4.45;1.13;;;21.80;45.00;;;;;;5010885;28;20090;-75
2022/07/05 07:25:23;;;;;;;4.97;2.30;;;21.80;45.70;;;;;;5011187;28;20029;-78
2022/07/05 07:27:51;;;;;;;1.35;0.95;;;21.80;44.70;;;;;;5011369;28;20535;-77
2022/07/05 07:30:20;;;;;;;5.13;1.27;;;21.90;45.50;;;;;;5010913;28;20599;-84
2022/07/05 07:32:46;;;;;;;5.18;1.10;;;21.60;46.30;;;;;;5026598;28;20112;-84
2022/07/05 07:35:12;;;;;;;2.67;1.33;;;21.60;48.30;;;;;;5026574;28;20054;-82
2022/07/05 07:37:37;;;;;;;1.83;0.90;;;21.80;45.70;;;;;;5011021;28;20030;-82
2022/07/05 07:40:04;;;;;;;1.70;1.00;;;21.80;48.70;;;;;;5011288;28;20041;-83
2022/07/05 07:42:30;;;;;;;2.22;0.90;;;22.00;46.90;;;;;;5027371;28;20022;-81
2022/07/05 07:44:56;;;;;;;2.08;1.10;;;22.10;48.60;;;;;;5027645;28;20052;-79
2022/07/05 07:47:21;;;;;;;2.65;1.48;;;22.40;49.60;;;;;;5016708;28;20096;-79
2022/07/05 07:49:47;;;;;;;5.82;1.30;;;22.50;49.80;;;;;;5011756;28;20037;-78
2022/07/05 07:52:13;;;;;;;5.90;1.30;;;22.80;49.60;;;;;;5011132;28;20082;-80
2022/07/05 07:54:38;;;;;;;5.10;1.42;;;22.80;49.30;;;;;;5011117;28;20026;-78
2022/07/05 07:57:05;;;;;;;6.63;1.50;;;22.90;48.10;;;;;;5026015;28;20094;-79
2022/07/05 07:59:34;;;;;;;2.78;1.00;;;23.00;48.40;;;;;;5025566;28;20022;-78
2022/07/05 08:02:01;;;;;;;3.65;1.13;;;23.20;46.50;;;;;;5010555;28;20049;-78
2022/07/05 08:04:26;;;;;;;4.43;1.40;;;23.10;45.10;;;;;;5011016;28;20438;-78
2022/07/05 08:06:52;;;;;;;4.43;1.35;;;23.20;46.40;;;;;;5011095;28;20102;-80
2022/07/05 08:09:18;;;;;;;5.10;1.13;;;23.20;46.80;;;;;;5010263;28;20026;-78
2022/07/05 08:11:45;;;;;;;2.53;1.30;;;23.40;45.70;;;;;;5010709;28;20030;-80
2022/07/05 08:14:10;;;;;;;6.20;1.20;;;23.60;45.10;;;;;;5010898;28;20018;-82
2022/07/05 08:16:36;;;;;;;4.53;1.02;;;23.60;43.20;;;;;;5025287;28;20125;-82
2022/07/05 08:21:47;;;;;;;7.72;1.15;;;23.70;45.10;;;;;;5011774;28;20078;-85
2022/07/05 08:24:13;;;;;;;3.38;1.35;;;23.80;42.50;;;;;;5011287;28;20426;-85
2022/07/05 08:26:40;;;;;;;3.95;1.23;;;23.70;41.80;;;;;;5026335;28;20030;-82
2022/07/05 08:29:10;;;;;;;3.03;1.52;;;23.60;41.20;;;;;;5010039;28;20026;-82
2022/07/05 08:31:38;;;;;;;4.75;1.02;;;23.50;41.50;;;;;;5010986;28;20048;-83
2022/07/05 08:34:04;;;;;;;3.42;1.20;;;23.50;41.80;;;;;;5025508;28;20022;-82
2022/07/05 08:36:30;;;;;;;5.20;1.15;;;23.60;42.60;;;;;;5011216;28;20030;-83
2022/07/05 08:38:55;;;;;;;3.53;1.00;;;23.70;42.60;;;;;;5019825;28;20033;-84
2022/07/05 08:41:22;;;;;;;5.13;0.80;;;23.70;41.00;;;;;;5044517;28;20009;-85
2022/07/05 08:43:49;;;;;;;5.88;1.27;;;23.70;41.80;;;;;;5031657;28;20025;-83
2022/07/05 08:46:16;;;;;;;3.50;0.88;;;23.80;39.90;;;;;;5014453;28;20052;-82
2022/07/05 08:48:43;;;;;;;5.18;0.88;;;23.90;38.80;;;;;;5027823;28;20033;-83
2022/07/05 08:51:29;;;;;;;3.13;0.65;;;24.00;39.50;;;;;;5026506;28;20166;-87
2022/07/05 08:53:57;;;;;;;2.55;0.98;;;24.10;39.50;;;;;;5010630;28;20029;-80
2022/07/05 08:56:23;;;;;;;2.92;0.70;;;24.10;39.40;;;;;;5025802;28;20037;-83
2022/07/05 08:58:49;;;;;;;2.00;0.60;;;24.00;35.10;;;;;;5010899;28;20049;-85
2022/07/05 09:01:16;;;;;;;3.08;0.70;;;23.70;35.90;;;;;;5008647;28;20463;-81
2022/07/05 09:03:49;;;;;;;1.63;0.63;;;23.80;36.30;;;;;;5024964;28;20086;-81
2022/07/05 09:06:19;;;;;;;5.80;0.95;;;23.70;35.00;;;;;;5025537;28;20435;-81
2022/07/05 09:08:45;;;;;;;1.60;0.60;;;23.70;36.10;;;;;;5024795;28;20025;-81
2022/07/05 09:11:15;;;;;;;1.65;0.50;;;23.70;35.30;;;;;;5009564;28;20090;-82
2022/07/05 09:13:44;;;;;;;1.48;0.68;;;23.80;36.10;;;;;;5025026;28;20022;-82
2022/07/05 09:16:09;;;;;;;1.75;0.80;;;23.80;35.70;;;;;;5024850;28;20110;-82
2022/07/05 09:18:49;;;;;;;3.45;0.90;;;24.10;37.20;;;;;;5024610;28;20493;-82
2022/07/05 09:21:26;;;;;;;1.20;0.60;;;24.40;35.20;;;;;;5009421;28;20081;-81
2022/07/05 09:23:56;;;;;;;3.67;0.70;;;24.60;34.90;;;;;;5009614;28;20074;-81
2022/07/05 09:26:36;;;;;;;1.08;0.30;;;24.70;34.40;;;;;;5025447;28;20026;-81
2022/07/05 09:29:04;;;;;;;2.90;0.88;;;24.60;34.70;;;;;;5024916;28;20018;-81
2022/07/05 09:31:35;;;;;;;2.65;0.90;;;24.40;35.30;;;;;;5027823;28;20058;-82
2022/07/05 09:34:06;;;;;;;2.08;0.70;;;24.60;37.00;;;;;;5027877;28;20049;-81
2022/07/05 09:36:51;;;;;;;1.50;0.80;;;24.30;34.30;;;;;;5027908;28;20159;-80
2022/07/05 09:39:18;;;;;;;4.90;0.80;;;24.10;35.30;;;;;;5012686;28;20018;-81
2022/07/05 09:41:43;;;;;;;2.45;0.95;;;24.10;34.50;;;;;;5012538;28;20034;-80
2022/07/05 09:44:09;;;;;;;1.13;0.85;;;24.20;35.20;;;;;;5012600;28;20026;-82
2022/07/05 09:46:35;;;;;;;2.80;0.82;;;24.20;35.70;;;;;;5028058;28;20022;-80
2022/07/05 09:49:00;;;;;;;1.50;0.60;;;24.20;36.50;;;;;;5027922;28;20057;-82
2022/07/05 09:51:26;;;;;;;1.60;0.77;;;24.10;35.10;;;;;;5027710;28;20109;-81
2022/07/05 09:53:54;;;;;;;1.83;0.63;;;23.70;36.30;;;;;;5012106;28;20125;-81
2022/07/05 09:56:21;;;;;;;0.82;0.50;;;23.70;35.70;;;;;;5027361;28;20022;-81
2022/07/05 09:58:46;;;;;;;2.58;0.90;;;23.90;34.80;;;;;;5011891;28;20030;-83
2022/07/05 10:01:32;;;;;;;1.98;0.65;;;24.00;35.70;;;;;;5012254;28;20034;-82
2022/07/05 10:04:01;;;;;;;3.00;0.73;;;23.80;37.10;;;;;;5027110;28;20033;-80
2022/07/05 10:06:28;;;;;;;2.65;0.50;;;23.90;36.80;;;;;;5011626;28;20026;-83
2022/07/05 10:08:54;;;;;;;1.77;0.80;;;24.00;35.20;;;;;;5028284;28;20040;-82
2022/07/05 10:11:20;;;;;;;6.88;0.60;;;24.00;35.50;;;;;;5026989;28;20122;-82
2022/07/05 10:13:50;;;;;;;2.80;1.15;;;24.20;36.10;;;;;;5011617;28;20014;-82
2022/07/05 10:16:17;;;;;;;1.30;0.90;;;24.30;36.10;;;;;;5011861;28;20022;-81
2022/07/05 10:18:50;;;;;;;5.78;0.75;;;24.20;36.40;;;;;;5011950;28;20093;-85
2022/07/05 10:21:17;;;;;;;3.08;0.80;;;24.20;36.10;;;;;;5011865;28;20037;-85
2022/07/05 10:23:44;;;;;;;3.55;0.70;;;24.50;36.70;;;;;;5011796;28;20086;-82
2022/07/05 10:26:12;;;;;;;2.00;0.70;;;24.70;34.30;;;;;;5012178;28;20114;-86
2022/07/05 10:28:44;;;;;;;3.25;0.73;;;24.80;33.80;;;;;;5012201;28;20022;-86
2022/07/05 10:31:12;;;;;;;4.15;0.50;;;24.90;33.00;;;;;;5013147;28;20049;-81
2022/07/05 10:33:39;;;;;;;2.75;0.68;;;25.00;32.90;;;;;;5027159;28;20385;-81
2022/07/05 10:36:05;;;;;;;4.13;0.70;;;25.00;33.20;;;;;;5012360;28;20036;-84
2022/07/05 10:38:35;;;;;;;3.08;0.70;;;25.00;34.00;;;;;;5012745;28;20072;-80
2022/07/05 10:41:04;;;;;;;2.58;0.60;;;24.80;34.70;;;;;;5011659;28;20026;-89
2022/07/05 10:43:30;;;;;;;3.63;0.73;;;24.60;35.10;;;;;;5012924;28;20574;-82
2022/07/05 10:45:56;;;;;;;1.58;0.70;;;24.70;36.10;;;;;;5029159;28;20116;-89
2022/07/05 10:48:27;;;;;;;1.77;0.70;;;24.90;36.70;;;;;;5028008;28;20081;-81
2022/07/05 10:51:04;;;;;;;2.97;0.73;;;25.20;34.40;;;;;;5028182;28;20154;-84
2022/07/05 10:53:55;;;;;;;3.75;0.88;;;25.10;34.10;;;;;;5013011;28;20026;-79
2022/07/05 10:56:21;;;;;;;1.38;0.70;;;25.00;34.70;;;;;;5011635;28;20026;-85
2022/07/05 10:58:47;;;;;;;2.60;0.50;;;24.80;34.40;;;;;;5016210;28;20030;-83
2022/07/05 11:01:15;;;;;;;4.00;0.93;;;24.60;35.00;;;;;;5015184;28;20025;-83
2022/07/05 11:03:43;;;;;;;4.47;0.57;;;24.50;35.10;;;;;;5028427;28;20039;-84
2022/07/05 11:06:19;;;;;;;1.50;0.60;;;24.80;33.90;;;;;;5010205;28;20026;-83
2022/07/05 11:08:59;;;;;;;1.33;0.65;;;25.10;33.80;;;;;;5010284;28;20022;-83
2022/07/05 11:11:29;;;;;;;1.05;0.75;;;25.50;33.20;;;;;;5009058;28;20119;-81
2022/07/05 11:13:58;;;;;;;2.78;0.63;;;25.80;32.20;;;;;;4992703;28;20030;-89
2022/07/05 11:16:26;;;;;;;3.30;0.80;;;26.10;31.80;;;;;;4994478;28;20058;-84
2022/07/05 11:19:16;;;;;;;1.73;0.70;;;26.50;32.00;;;;;;4992872;28;20121;-83
2022/07/05 11:22:03;;;;;;;2.60;0.70;;;26.60;29.40;;;;;;5019064;28;20034;-82
2022/07/05 11:24:37;;;;;;;10.85;1.02;;;26.80;27.40;;;;;;5006093;28;20195;-87
2022/07/05 11:27:10;;;;;;;3.13;0.80;;;26.60;27.80;;;;;;5001631;28;20116;-84
2022/07/05 11:29:47;;;;;;;1.83;0.63;;;26.80;28.90;;;;;;4993497;28;20046;-85
2022/07/05 11:32:17;;;;;;;4.05;0.55;;;26.60;31.40;;;;;;4996681;28;20042;-81
2022/07/05 11:34:48;;;;;;;4.63;0.60;;;26.50;31.40;;;;;;4993217;28;20088;-84
2022/07/05 11:37:14;;;;;;;1.83;0.60;;;26.80;30.70;;;;;;4994801;28;20023;-82
2022/07/05 11:39:46;;;;;;;2.33;0.73;;;27.00;30.40;;;;;;4991537;28;20022;-80
2022/07/05 11:42:19;;;;;;;1.17;0.55;;;27.10;28.80;;;;;;4991249;28;20026;-83
2022/07/05 11:44:49;;;;;;;2.05;0.68;;;26.80;28.10;;;;;;4990396;28;20060;-81
2022/07/05 11:47:16;;;;;;;2.28;0.82;;;26.40;28.80;;;;;;4991227;28;20041;-82
2022/07/05 11:49:53;;;;;;;1.45;0.50;;;26.40;30.30;;;;;;4990866;28;20113;-82
2022/07/05 11:52:31;;;;;;;3.08;0.90;;;26.40;29.20;;;;;;4988716;28;20466;-83
2022/07/05 11:54:59;;;;;;;2.78;0.80;;;26.20;30.20;;;;;;4991176;28;20026;-81
2022/07/05 11:57:25;;;;;;;5.28;0.80;;;26.00;30.00;;;;;;4991200;28;20105;-81
2022/07/05 11:59:51;;;;;;;1.45;0.80;;;26.10;30.00;;;;;;4991208;28;20514;-82
2022/07/05 12:02:17;;;;;;;1.30;0.60;;;26.30;30.50;;;;;;4992085;28;20548;-80
2022/07/05 12:04:54;;;;;;;5.65;1.00;;;26.70;29.30;;;;;;4990643;28;20023;-81
2022/07/05 12:07:31;;;;;;;3.50;0.70;;;27.00;27.70;;;;;;4991112;28;20038;-80
2022/07/05 12:12:42;;;;;;;2.22;0.85;;;27.00;27.10;;;;;;4990657;28;20107;-81
2022/07/05 12:15:12;;;;;;;1.63;0.60;;;27.00;27.50;;;;;;4990541;28;20026;-81
2022/07/05 12:17:40;;;;;;;1.13;0.45;;;27.40;26.60;;;;;;4990885;28;20076;-82
2022/07/05 12:20:07;;;;;;;0.63;0.50;;;27.50;23.70;;;;;;4989492;28;20081;-80
2022/07/05 12:22:41;;;;;;;4.50;0.93;;;27.90;23.50;;;;;;4990392;28;20568;-80
2022/07/05 12:25:12;;;;;;;1.30;0.60;;;27.90;22.20;;;;;;4990903;28;20531;-80
2022/07/05 12:27:40;;;;;;;3.67;0.77;;;27.80;22.00;;;;;;4990916;28;20642;-79
2022/07/05 12:30:08;;;;;;;3.10;0.57;;;27.50;21.50;;;;;;4989461;28;20091;-82
2022/07/05 12:32:36;;;;;;;2.10;0.40;;;27.50;23.40;;;;;;4990645;28;20038;-82
2022/07/05 12:35:02;;;;;;;5.10;0.77;;;27.50;24.20;;;;;;4990246;28;20018;-81
2022/07/05 12:37:29;;;;;;;2.20;0.40;;;27.50;25.00;;;;;;4990410;28;20041;-80
2022/07/05 12:40:04;;;;;;;1.75;0.65;;;28.00;26.90;;;;;;4989454;28;20034;-80
2022/07/05 12:42:32;;;;;;;1.48;0.65;;;28.50;24.80;;;;;;4990295;28;20530;-79
2022/07/05 12:45:15;;;;;;;4.28;1.23;;;28.40;23.50;;;;;;4990181;28;20049;-76
2022/07/05 12:47:53;;;;;;;2.97;0.70;;;28.50;22.10;;;;;;4990379;28;20080;-77
2022/07/05 12:50:28;;;;;;;3.05;0.57;;;28.50;22.60;;;;;;4990211;28;20018;-79
2022/07/05 12:58:49;;;;;;;3.03;0.57;;;28.80;21.70;;;;;;4990738;28;20478;-82
2022/07/05 13:01:37;;;;;;;5.40;0.63;;;29.00;21.70;;;;;;4990082;28;20027;-75
2022/07/05 13:04:03;;;;;;;1.85;0.85;;;29.00;21.30;;;;;;4991611;28;20033;-76